• Join FlightAware (Why Join?)
  • Login
  • US Flag 
Gobble Gobble! 
08:54PM EST


 

Airport Tracker/Info


-or-


 

Live Flight TrackerFlight Track Log ✈ EGF4174 ✈ 05-Jun-2013 ✈ KSYR - KORD

Flight Track Log - Related Links

Times and Time Zones

All times are in EDT time to prevent confusion due to time zone crossing. See the EGF4174 flight status page for this flight to view local times or setup timezone preferences in your user account.

Time Position Orientation Groundspeed Altitude Reporting Facility
EDT Latitude Longitude Course Direction KTS MPH feet Rate Location/Type
04:55PM 43.1089 -76.0892 286° West 166 191 1,100  Level Boston Center
04:57PM 43.1647 -76.0386 33° Northeast 230 265 4,500 1,920 Climbing Boston Center
04:57PM 43.1756 -76.0933 285° West 257 296 5,600 2,100 Climbing Boston Center
04:58PM 43.1833 -76.4262 270° West  Level FlightAware Approximate
04:59PM 43.2047 -76.5324 281° West  Level FlightAware Approximate
04:59PM 43.1731 -76.2444 269° West 267 307 9,200  Level Cleveland Center
05:00PM 43.2234 -76.6479 286° West  Level FlightAware Approximate
05:00PM 43.1769 -76.3522 273° West 267 307 10,500  Level Cleveland Center
05:01PM 43.1767 -76.4633 270° West 288 331 12,800 2,160 Climbing Cleveland Center
05:02PM 43.1744 -76.5744 268° West 295 339 14,900 1,800 Climbing Cleveland Center
05:03PM 43.1761 -76.6856 271° West 295 339 16,500 1,500 Climbing Cleveland Center
05:04PM 43.1711 -76.7856 266° West 289 333 17,900 1,200 Climbing Cleveland Center
05:05PM 43.1706 -76.8994 270° West 294 338 19,000 1,200 Climbing Cleveland Center
05:06PM 43.1683 -77.0219 269° West 309 356 20,300 1,500 Climbing Cleveland Center
05:07PM 43.1658 -77.1475 268° West 320 368 22,000 1,500 Climbing Cleveland Center
05:08PM 43.1650 -77.2672 269° West 320 368 23,400 1,440 Climbing Cleveland Center
05:09PM 43.1644 -77.3925 270° West 326 375 24,900 1,440 Climbing Cleveland Center
05:10PM 43.1656 -77.5147 271° West 326 375 26,300 1,260 Climbing Cleveland Center
05:11PM 43.1647 -77.6372 270° West 326 375 27,500 1,080 Climbing Cleveland Center
05:12PM 43.1656 -77.7594 271° West 326 375 28,500 960 Climbing Cleveland Center
05:13PM 43.1625 -77.8878 268° West 326 375 29,500 720 Climbing Cleveland Center
05:14PM 43.1611 -78.0131 269° West 326 375 30,000 240 Climbing Cleveland Center
05:15PM 43.1619 -78.1497 271° West 338 389 30,000  Level Cleveland Center
05:16PM 43.1606 -78.2864 269° West 352 405 30,000  Level Cleveland Center
05:17PM 43.1592 -78.4344 269° West 363 418 30,000  Level Cleveland Center
05:18PM 43.1575 -78.5683 269° West 363 418 30,000  Level Cleveland Center
05:19PM 43.1556 -78.7022 269° West 363 418 30,000  Level Cleveland Center
05:20PM 43.1536 -78.8358 269° West 358 412 30,000  Level Cleveland Center
05:21PM 43.1514 -78.9669 269° West 358 412 30,000  Level Cleveland Center
05:21PM 43.1333 -79.0000 233° Southwest 350 403 30,000  Level Toronto Center
05:22PM 43.1333 -79.1333 270° West 350 403 30,000  Level Toronto Center
05:23PM 43.1333 -79.2667 270° West 350 403 30,000  Level Toronto Center
05:24PM 43.1333 -79.4000 270° West 350 403 30,000  Level Toronto Center
05:25PM 43.1333 -79.5500 270° West 350 403 30,000  Level Toronto Center
05:26PM 43.1333 -79.6500 270° West 350 403 30,000  Level Toronto Center
05:27PM 43.1167 -79.8000 261° West 350 403 30,000  Level Toronto Center
05:28PM 43.1167 -79.9333 270° West 360 414 30,000  Level Toronto Center
05:29PM 43.1167 -80.0667 270° West 370 426 30,000  Level Toronto Center
05:30PM 43.1167 -80.2333 270° West 370 426 30,000  Level Toronto Center
05:31PM 43.1167 -80.3667 270° West 380 437 30,000  Level Toronto Center
05:32PM 43.1000 -80.5167 261° West 380 437 30,000  Level Toronto Center
05:33PM 43.1000 -80.6667 270° West 380 437 30,000  Level Toronto Center
05:34PM 43.0833 -80.8167 261° West 390 449 30,000  Level Toronto Center
05:35PM 43.0833 -80.9500 270° West 390 449 30,000  Level Toronto Center
05:36PM 43.0833 -81.1167 270° West 390 449 30,000  Level Toronto Center
05:37PM 43.0667 -81.2500 260° West 390 449 30,000  Level Toronto Center
05:38PM 43.0667 -81.4167 270° West 390 449 30,000  Level Toronto Center
05:39PM 43.0667 -81.5500 270° West 390 449 30,000  Level Toronto Center
05:40PM 43.0667 -81.7167 270° West 390 449 30,000  Level Toronto Center
05:41PM 43.0500 -81.8500 260° West 390 449 30,000  Level Toronto Center
05:42PM 43.0333 -81.9833 260° West 390 449 30,000  Level Toronto Center
05:43PM 43.0333 -82.1500 270° West 390 449 30,000  Level Toronto Center
05:44PM 43.0333 -82.2833 270° West 390 449 30,000 -360 Level Toronto Center
05:45PM 43.0333 -82.4333 270° West 390 449 29,300 -600 Descending Toronto Center
05:46PM 43.0167 -82.5667 260° West 390 449 28,800 -600 Descending Toronto Center
05:47PM 43.0289 -82.6819 278° West 388 447 28,300 -480 Descending Cleveland Center
05:48PM 43.0658 -82.8253 289° West 388 447 28,000 -180 Descending Cleveland Center
05:49PM 43.1067 -82.9692 291° West 399 459 28,000  Level Cleveland Center
05:50PM 43.0889 -83.1133 260° West 383 441 28,000  Level Cleveland Center
05:51PM 42.9914 -83.1917 210° Southwest 343 395 28,000  Level Cleveland Center
05:52PM 42.9303 -83.3111 235° Southwest 362 417 28,000  Level Cleveland Center
05:53PM 42.9286 -83.4586 269° West 362 417 28,000  Level Cleveland Center
05:54PM 42.9231 -83.6028 267° West 380 437 28,000  Level Cleveland Center
05:55PM 42.9167 -83.7556 267° West 391 450 28,000 -540 Level Cleveland Center
05:56PM 42.9106 -83.9000 267° West 396 456 27,000 -960 Descending Cleveland Center
05:57PM 42.9061 -84.0500 268° West 396 456 26,100 -660 Descending Cleveland Center
05:57PM 42.9031 -84.1364 267° West 390 449 26,000 -120 Descending Chicago Center
05:58PM 42.8972 -84.2831 267° West 389 448 26,000  Level Chicago Center
05:59PM 42.8908 -84.4289 267° West 388 447 26,000  Level Chicago Center
06:01PM 42.8858 -84.5753 267° West 387 445 26,000  Level Chicago Center
06:02PM 42.8714 -84.7200 262° West 386 444 26,000  Level Chicago Center
06:03PM 42.8522 -84.8944 262° West 389 448 26,000  Level Chicago Center
06:04PM 42.8367 -85.0397 262° West 390 449 26,000  Level Chicago Center
06:05PM 42.8208 -85.1850 262° West 389 448 26,000  Level Chicago Center
06:06PM 42.8058 -85.3306 262° West 388 447 26,000  Level Chicago Center
06:07PM 42.7897 -85.4764 261° West 389 448 26,000  Level Chicago Center
06:08PM 42.7658 -85.6178 257° West 384 442 26,000 -900 Level Chicago Center
06:09PM 42.7347 -85.7883 256° West 385 443 24,200 -1,860 Descending Chicago Center
06:10PM 42.7100 -85.9258 256° West 375 432 22,200 -1,620 Descending Chicago Center
06:11PM 42.6850 -86.0617 256° West 370 426 20,900 -1,080 Descending Chicago Center
06:12PM 42.6603 -86.1958 256° West 367 422 20,000 -480 Descending Chicago Center
06:13PM 42.6361 -86.3267 256° West 358 412 20,000 -480 Level Chicago Center
06:14PM 42.6119 -86.4550 256° West 352 405 19,100 -1,380 Descending Chicago Center
06:15PM 42.5886 -86.5803 256° West 345 397 17,200 -2,160 Descending Chicago Center
06:16PM 42.5606 -86.7281 256° West 339 390 14,700 -1,980 Descending Chicago Center
06:17PM 42.5319 -86.8375 251° West 319 367 13,200 -1,500 Descending Chicago Center
06:18PM 42.5042 -86.9342 249° West 287 330 11,700 -1,500 Descending Chicago Center
06:19PM 42.4767 -87.0378 250° West 291 335 10,200 -840 Descending Chicago Center
06:20PM 42.4486 -87.1353 249° West 282 325 10,000 -300 Descending Chicago Center
06:21PM 42.4203 -87.2381 250° West 287 330 9,600 -780 Descending Chicago Center
06:22PM 42.3850 -87.3558 248° West 284 327 8,500 -1,020 Descending Chicago Center
06:23PM 42.3539 -87.4461 245° Southwest 275 316 7,500 -780 Descending Chicago Center
06:24PM 42.3203 -87.5394 244° Southwest 273 314 7,000 -300 Descending Chicago Center
06:25PM 42.2614 -87.6056 220° Southwest 276 318 7,000 -540 Level Chicago Center
06:26PM 42.2025 -87.6686 218° Southwest 273 314 6,000 -1,260 Descending Chicago Center
06:27PM 42.1397 -87.7400 220° Southwest 249 287 4,400 -1,560 Descending Chicago Center